Huvudsida
METAR-TAF:

METAR-TAF

Flygplatser :

Librevilles internationella flygplats

Libreville, Gabon

latitud: 00-27N, longitud: 009-25E, höjd: 12 m

Aktuellt väderrapport

Denna rapport gjordes för 24 minuter sedan, klockan 01:30 UTC
Vind 3 kt från väst/sydväst, varierande mellan syd/sydväst och väst
Temperatur 27°C
Fuktighet 89%
Tryck 1011 hPa
Sikt 10 km eller mer
Få moln på en höjd av 1000 ft

METAR: FOOL 190130Z 24003KT 210V280 9999 FEW010 27/25 Q1011 NOSIG

Tid: 02:54 (01:54 UTC)

Väderprognos

Denna rapport gjordes för 2 timmar och 54 minuter sedan, klockan 23:00 UTC
Prognos gäller från 19 kl. 00 UTC till 20 kl. 06 UTC
Vind 4 kt från väst
Sikt 10 km eller mer
Spridda moln på en höjd av 1000 ft
Brutna moln på en höjd av 3000 ft
Sannolikhet 30%
från 19 kl. 05 UTC till 19 kl. 07 UTC
Sikt: 4000 m
fuktdis

TAF: FOOL 182300Z 1900/2006 26004KT 9999 SCT010 BKN030 PROB30 1905/1907 4000 BR

Aktuella väderrapporter och prognoser från 4000 flygplatser (METAR- och TAF-rapporter).

De tillgängliga stationerna syns som gula och röda prickar på kartan.

För musen över prickarna för att se namnen på stationerna.

Klicka sedan för att få väderrapporter och prognoser.

För att ändra kartan: Klicka på de gröna knapparna med ett svart kors på för att zooma in; den gröna knappen med ett streck på för att zooma ut; eller på de gröna pilarna för angränsande kartor.


METAR-TAF: